Time;durP1;ratioP1;P1;durP2;ratioP2;P2;SDS_P1;SDS_P2;PMS_P1;PMS_P2;Temp;Humidity;BMP_temperature;BMP_pressure;BME280_temperature;BME280_humidity;BME280_pressure;Samples;Min_cycle;Max_cycle;Signal;HPM_P1;HPM_P2
2023/09/24 00:02:11;;;;;;;;;;;12.70;59.40;;;8.15;100.00;96167.78;5026859;28;20028;-44
2023/09/24 00:04:39;;;;;;;;;;;12.60;59.40;;;8.11;100.00;96158.66;5028619;28;20363;-44
2023/09/24 00:07:05;;;;;;;;;;;12.60;59.50;;;8.08;100.00;96161.78;5027785;28;19921;-44
2023/09/24 00:09:32;;;;;;;;;;;12.50;59.50;;;8.01;100.00;96158.44;5026619;28;19940;-42
2023/09/24 00:11:58;;;;;;;;;;;12.50;59.60;;;7.99;100.00;96157.88;5030076;28;19909;-44
2023/09/24 00:14:30;;;;;;;;;;;12.40;59.60;;;7.95;100.00;96152.22;5031319;28;19981;-43
2023/09/24 00:16:57;;;;;;;;;;;12.40;59.60;;;7.88;100.00;96160.31;5031163;28;20401;-42
2023/09/24 00:19:24;;;;;;;;;;;12.40;59.70;;;7.83;100.00;96164.69;5021513;28;19935;-45
2023/09/24 00:21:50;;;;;;;;;;;12.30;59.80;;;7.80;100.00;96166.00;5021739;28;19931;-44
2023/09/24 00:24:19;;;;;;;;;;;12.30;59.80;;;7.78;100.00;96164.59;5020927;28;19912;-44
2023/09/24 00:26:45;;;;;;;;;;;12.30;59.90;;;7.75;100.00;96165.06;5030215;28;19920;-45
2023/09/24 00:29:12;;;;;;;;;;;12.20;59.90;;;7.71;100.00;96161.25;5031198;28;19954;-42
2023/09/24 00:31:38;;;;;;;;;;;12.20;59.90;;;7.69;100.00;96163.34;5029422;28;19915;-47
2023/09/24 00:34:05;;;;;;;;;;;12.20;60.00;;;7.69;100.00;96168.66;5025800;28;19913;-43
2023/09/24 00:36:35;;;;;;;;;;;12.20;60.10;;;7.61;100.00;96175.91;5021824;28;19909;-42
2023/09/24 00:39:01;;;;;;;;;;;12.10;60.20;;;7.57;100.00;96176.59;5021457;28;19908;-44
2023/09/24 00:41:27;;;;;;;;;;;12.10;60.20;;;7.55;100.00;96168.06;5025044;28;19961;-46
2023/09/24 00:43:53;;;;;;;;;;;12.10;60.30;;;7.47;100.00;96171.06;5025711;28;19908;-47
2023/09/24 00:46:21;;;;;;;;;;;12.10;60.30;;;7.49;100.00;96172.47;5033211;28;19913;-47
2023/09/24 00:48:50;;;;;;;;;;;12.00;60.30;;;7.47;100.00;96179.81;5029788;28;19913;-44
2023/09/24 00:51:19;;;;;;;;;;;12.00;60.30;;;7.45;100.00;96181.09;5031047;28;19952;-47
2023/09/24 00:53:47;;;;;;;;;;;11.90;60.30;;;7.39;100.00;96180.16;5029835;28;19996;-49
2023/09/24 00:56:14;;;;;;;;;;;11.90;60.40;;;7.34;100.00;96180.06;5023667;28;19924;-43
2023/09/24 00:58:47;;;;;;;;;;;11.90;60.40;;;7.30;100.00;96171.75;4996992;28;19909;-44
2023/09/24 01:01:13;;;;;;;;;;;11.90;60.50;;;7.31;100.00;96180.50;5027815;28;19916;-43
2023/09/24 01:03:40;;;;;;;;;;;11.80;60.50;;;7.30;100.00;96186.84;5032597;28;19916;-45
2023/09/24 01:06:06;;;;;;;;;;;11.80;60.60;;;7.23;100.00;96194.09;5022745;28;19908;-44
2023/09/24 01:08:33;;;;;;;;;;;11.80;60.60;;;7.25;100.00;96192.81;5027850;28;19921;-45
2023/09/24 01:11:01;;;;;;;;;;;11.70;60.70;;;7.31;100.00;96193.75;5029944;28;19909;-46
2023/09/24 01:13:46;;;;;;;;;;;11.70;60.90;;;7.30;100.00;96189.47;5025058;28;19954;-45
2023/09/24 01:16:13;;;;;;;;;;;11.70;61.00;;;7.32;100.00;96193.53;5028802;28;19916;-43
2023/09/24 01:18:41;;;;;;;;;;;11.70;61.10;;;7.31;100.00;96191.13;5023072;28;19944;-42
2023/09/24 01:21:15;;;;;;;;;;;11.80;61.20;;;7.32;100.00;96188.22;5019636;28;19908;-42
2023/09/24 01:23:45;;;;;;;;;;;11.70;61.20;;;7.29;100.00;96196.63;5027006;28;20345;-43
2023/09/24 01:26:13;;;;;;;;;;;11.70;61.20;;;7.30;100.00;96203.56;5021541;28;19923;-49
2023/09/24 01:28:40;;;;;;;;;;;11.70;61.20;;;7.29;100.00;96201.94;5016523;28;19920;-51
2023/09/24 01:31:06;;;;;;;;;;;11.70;61.30;;;7.26;100.00;96206.88;5029124;28;20351;-52
2023/09/24 01:33:36;;;;;;;;;;;11.70;61.30;;;7.22;100.00;96214.47;5026296;28;19948;-52
2023/09/24 01:36:04;;;;;;;;;;;11.70;61.30;;;7.18;100.00;96203.53;5024334;28;19940;-52
2023/09/24 01:38:30;;;;;;;;;;;11.70;61.30;;;7.13;100.00;96206.06;5030948;28;19913;-54
2023/09/24 01:40:56;;;;;;;;;;;11.70;61.30;;;7.09;100.00;96207.53;5026397;28;20020;-51
2023/09/24 01:43:21;;;;;;;;;;;11.70;61.20;;;7.04;100.00;96199.47;5031213;28;19999;-50
2023/09/24 01:45:47;;;;;;;;;;;11.60;61.20;;;6.99;100.00;96199.34;5031975;28;19954;-52
2023/09/24 01:48:17;;;;;;;;;;;11.60;61.20;;;6.97;100.00;96196.13;5025953;28;20345;-49
2023/09/24 01:50:43;;;;;;;;;;;11.50;61.20;;;6.99;100.00;96190.56;5028215;28;19943;-52
2023/09/24 01:53:09;;;;;;;;;;;11.50;61.30;;;6.98;100.00;96194.25;5030762;28;19974;-49
2023/09/24 01:55:39;;;;;;;;;;;11.50;61.40;;;6.93;100.00;96190.47;5023895;28;20282;-50
2023/09/24 01:58:05;;;;;;;;;;;11.50;62.10;;;6.86;100.00;96184.47;5018830;28;19945;-48
2023/09/24 02:00:31;;;;;;;;;;;11.40;61.30;;;6.87;100.00;96183.41;5030516;28;20319;-52
2023/09/24 02:03:05;;;;;;;;;;;11.40;61.40;;;6.85;100.00;96188.13;5019094;28;19909;-52
2023/09/24 02:05:33;;;;;;;;;;;11.40;61.50;;;6.84;100.00;96191.00;5031063;28;19939;-53
2023/09/24 02:08:06;;;;;;;;;;;11.30;62.20;;;6.79;100.00;96209.41;5016688;28;19923;-53
2023/09/24 02:10:33;;;;;;;;;;;11.30;61.50;;;6.74;100.00;96199.50;5028858;28;19943;-52
2023/09/24 02:13:00;;;;;;;;;;;11.30;61.60;;;6.69;100.00;96205.47;5017731;28;19909;-49
2023/09/24 02:15:27;;;;;;;;;;;11.30;61.60;;;6.68;100.00;96203.84;5019794;28;20004;-50
2023/09/24 02:17:53;;;;;;;;;;;11.20;61.60;;;6.68;100.00;96200.41;5022092;28;19909;-50
2023/09/24 02:20:25;;;;;;;;;;;11.20;61.70;;;6.68;100.00;96203.84;5031779;28;19993;-52
2023/09/24 02:22:59;;;;;;;;;;;11.20;61.80;;;6.73;100.00;96195.22;5031479;28;20003;-51
2023/09/24 02:25:33;;;;;;;;;;;11.20;61.80;;;6.70;100.00;96199.13;5030086;28;20019;-51
2023/09/24 02:28:00;;;;;;;;;;;11.20;61.80;;;6.67;100.00;96196.91;5029674;28;19916;-51
2023/09/24 02:30:29;;;;;;;;;;;11.10;61.80;;;6.62;100.00;96204.75;5023375;28;19952;-49
2023/09/24 02:32:57;;;;;;;;;;;11.10;61.80;;;6.56;100.00;96205.63;5018616;28;20333;-52
2023/09/24 02:35:24;;;;;;;;;;;11.10;61.80;;;6.49;100.00;96204.94;5026268;28;19916;-49
2023/09/24 02:37:52;;;;;;;;;;;11.10;61.80;;;6.42;100.00;96204.97;5012189;28;19928;-52
2023/09/24 02:42:47;;;;;;;;;;;11.00;61.80;;;6.41;100.00;96213.16;5029449;28;19955;-50
2023/09/24 02:45:15;;;;;;;;;;;11.00;61.90;;;6.44;100.00;96208.22;5029877;28;20019;-49
2023/09/24 02:47:42;;;;;;;;;;;11.00;62.00;;;6.40;100.00;96208.91;5030825;28;19912;-48
2023/09/24 02:50:12;;;;;;;;;;;11.00;62.00;;;6.40;100.00;96208.91;5030337;28;19909;-51
2023/09/24 02:52:43;;;;;;;;;;;11.00;62.00;;;6.39;100.00;96218.69;5029123;28;19974;-48
2023/09/24 02:55:13;;;;;;;;;;;10.90;62.10;;;6.38;100.00;96219.69;5024754;28;19968;-49
2023/09/24 02:57:40;;;;;;;;;;;10.90;62.10;;;6.31;100.00;96221.63;5027199;28;19908;-52
2023/09/24 03:00:12;;;;;;;;;;;10.90;62.20;;;6.28;100.00;96214.13;5023635;28;19908;-47
2023/09/24 03:02:39;;;;;;;;;;;10.90;62.20;;;6.28;100.00;96218.63;5026699;28;19916;-49
2023/09/24 03:05:11;;;;;;;;;;;10.80;62.20;;;6.28;100.00;96223.91;5030583;28;19909;-53
2023/09/24 03:07:39;;;;;;;;;;;10.80;62.20;;;6.27;100.00;96223.09;5026564;28;20351;-49
2023/09/24 03:10:06;;;;;;;;;;;10.80;62.30;;;6.34;100.00;96226.47;5013161;28;20346;-49
2023/09/24 03:12:33;;;;;;;;;;;10.80;62.40;;;6.35;100.00;96220.16;5021944;28;19966;-51
2023/09/24 03:14:59;;;;;;;;;;;10.80;62.50;;;6.35;100.00;96222.78;5017115;28;19996;-49
2023/09/24 03:17:25;;;;;;;;;;;10.80;62.50;;;6.32;100.00;96225.88;5023023;28;20409;-53
2023/09/24 03:19:50;;;;;;;;;;;10.80;62.60;;;6.28;100.00;96232.66;5026330;28;19952;-49
2023/09/24 03:22:17;;;;;;;;;;;10.80;62.60;;;6.27;100.00;96233.69;5027443;28;19912;-52
2023/09/24 03:24:43;;;;;;;;;;;10.80;62.60;;;6.26;100.00;96234.69;5022470;28;19919;-50
2023/09/24 03:27:09;;;;;;;;;;;10.80;62.60;;;6.23;100.00;96243.88;5026413;28;19913;-51
2023/09/24 03:29:35;;;;;;;;;;;10.80;62.70;;;6.21;100.00;96237.22;5025695;28;19942;-48
2023/09/24 03:32:01;;;;;;;;;;;10.80;62.70;;;6.22;100.00;96241.47;5019263;28;20005;-49
2023/09/24 03:34:26;;;;;;;;;;;10.80;62.70;;;6.28;100.00;96245.09;5028258;28;19916;-43
2023/09/24 03:36:52;;;;;;;;;;;10.80;62.80;;;6.30;100.00;96243.00;5029793;28;19912;-49
2023/09/24 03:39:18;;;;;;;;;;;10.80;62.80;;;6.29;100.00;96247.50;5029211;28;20054;-52
2023/09/24 03:41:43;;;;;;;;;;;10.80;62.70;;;6.28;100.00;96243.25;5013665;28;20057;-53
2023/09/24 03:44:09;;;;;;;;;;;10.80;62.80;;;6.30;100.00;96243.00;5028869;28;20031;-52
2023/09/24 03:46:35;;;;;;;;;;;10.80;62.90;;;6.31;100.00;96245.44;5029939;28;19909;-52
2023/09/24 03:49:01;;;;;;;;;;;10.80;62.80;;;6.29;100.00;96247.50;5027830;28;19916;-50
2023/09/24 03:51:27;;;;;;;;;;;10.80;62.90;;;6.33;100.00;96248.69;5030049;28;19913;-47
2023/09/24 03:53:52;;;;;;;;;;;10.80;62.90;;;6.34;100.00;96241.56;5025116;28;19916;-49
2023/09/24 03:56:18;;;;;;;;;;;10.80;63.00;;;6.31;100.00;96242.78;5024209;28;19916;-49
2023/09/24 03:58:44;;;;;;;;;;;10.80;63.00;;;6.29;100.00;96249.34;5012721;28;20011;-48
2023/09/24 04:01:11;;;;;;;;;;;10.70;62.90;;;6.26;100.00;96248.72;5029107;28;19908;-50
2023/09/24 04:03:37;;;;;;;;;;;10.80;63.00;;;6.28;100.00;96258.31;5029362;28;19932;-49
2023/09/24 04:06:13;;;;;;;;;;;10.80;63.00;;;6.20;100.00;96254.91;5028514;28;19912;-50
2023/09/24 04:08:39;;;;;;;;;;;10.70;63.00;;;6.20;100.00;96260.19;5027036;28;20375;-52
2023/09/24 04:11:12;;;;;;;;;;;10.70;63.00;;;6.17;100.00;96260.66;5030048;28;20432;-49
2023/09/24 04:13:38;;;;;;;;;;;10.70;63.00;;;6.11;100.00;96261.53;5026047;28;20398;-49
2023/09/24 04:16:12;;;;;;;;;;;10.70;63.00;;;6.09;100.00;96263.59;5022030;28;19915;-47
2023/09/24 04:18:41;;;;;;;;;;;10.70;63.00;;;6.08;100.00;96266.44;5028206;28;20374;-53
2023/09/24 04:21:18;;;;;;;;;;;10.60;63.00;;;6.03;100.00;96265.25;5014071;28;20437;-48
2023/09/24 04:23:45;;;;;;;;;;;10.60;63.10;;;6.03;100.00;96267.09;5027905;28;19919;-51
2023/09/24 04:26:21;;;;;;;;;;;10.60;63.10;;;5.98;100.00;96262.47;5023127;28;19952;-50
2023/09/24 04:28:51;;;;;;;;;;;10.60;63.10;;;5.95;100.00;96268.19;5028195;28;19982;-50
2023/09/24 04:31:17;;;;;;;;;;;10.50;63.10;;;5.91;100.00;96269.63;5017568;28;19919;-53
2023/09/24 04:33:44;;;;;;;;;;;10.50;63.10;;;5.94;100.00;96266.56;5020126;28;19913;-50
2023/09/24 04:36:11;;;;;;;;;;;10.50;63.20;;;5.95;100.00;96260.25;5027247;28;19909;-51
2023/09/24 04:38:37;;;;;;;;;;;10.50;63.30;;;5.93;100.00;96267.63;5027708;28;20050;-52
2023/09/24 04:41:03;;;;;;;;;;;10.50;63.40;;;5.95;100.00;96268.19;5024555;28;19917;-50
2023/09/24 04:43:29;;;;;;;;;;;10.50;63.40;;;5.97;100.00;96276.72;5014422;28;19918;-47
2023/09/24 04:45:55;;;;;;;;;;;10.50;63.40;;;5.95;100.00;96277.97;5024860;28;20058;-49
2023/09/24 04:48:21;;;;;;;;;;;10.50;63.40;;;5.93;100.00;96274.75;5025756;28;19988;-46
2023/09/24 04:50:47;;;;;;;;;;;10.50;63.50;;;5.90;100.00;96283.06;5023180;28;19916;-49
2023/09/24 04:53:13;;;;;;;;;;;10.50;63.50;;;5.90;100.00;96280.44;5026910;28;19913;-53
2023/09/24 04:55:38;;;;;;;;;;;10.50;63.60;;;5.91;100.00;96284.69;5027532;28;20470;-54
2023/09/24 04:58:04;;;;;;;;;;;10.50;63.60;;;5.90;100.00;96286.53;5024191;28;19912;-53
2023/09/24 05:00:30;;;;;;;;;;;10.50;63.70;;;5.92;100.00;96291.59;5020407;28;19909;-52
2023/09/24 05:02:56;;;;;;;;;;;10.50;63.70;;;5.97;100.00;96291.78;5031654;28;20339;-48
2023/09/24 05:05:22;;;;;;;;;;;10.50;63.80;;;5.98;100.00;96294.19;5031468;28;19976;-49
2023/09/24 05:07:50;;;;;;;;;;;10.50;63.80;;;5.98;100.00;96294.19;5023125;28;20359;-50
2023/09/24 05:10:16;;;;;;;;;;;10.50;63.80;;;5.97;100.00;96300.53;5022091;28;19908;-53
2023/09/24 05:12:42;;;;;;;;;;;10.50;63.90;;;5.95;100.00;96291.19;5022427;28;19914;-48
2023/09/24 05:15:08;;;;;;;;;;;10.50;63.80;;;5.93;100.00;96295.91;5018369;28;20287;-50
2023/09/24 05:17:34;;;;;;;;;;;10.50;63.80;;;5.87;100.00;96296.72;5015052;28;20321;-47
2023/09/24 05:20:00;;;;;;;;;;;10.50;63.80;;;5.87;100.00;96297.53;5026057;28;19909;-52
2023/09/24 05:22:27;;;;;;;;;;;10.50;63.80;;;5.88;100.00;96298.34;5033057;28;19920;-51
2023/09/24 05:24:53;;;;;;;;;;;10.50;63.80;;;5.93;100.00;96302.00;5031937;28;20306;-45
2023/09/24 05:27:19;;;;;;;;;;;10.50;63.80;;;5.97;100.00;96308.44;5014244;28;19952;-51
2023/09/24 05:29:49;;;;;;;;;;;10.50;63.90;;;6.03;100.00;96307.59;5028782;28;20375;-47
2023/09/24 05:32:15;;;;;;;;;;;10.50;64.10;;;6.21;100.00;96311.28;5017129;28;19909;-52
2023/09/24 05:34:40;;;;;;;;;;;10.60;64.30;;;6.35;100.00;96304.03;5019607;28;20030;-47
2023/09/24 05:37:08;;;;;;;;;;;10.70;64.50;;;6.47;100.00;96307.56;5027152;28;20290;-48
2023/09/24 05:39:35;;;;;;;;;;;10.70;64.60;;;6.64;100.00;96307.75;5020168;28;20329;-50
2023/09/24 05:42:03;;;;;;;;;;;10.80;64.90;;;6.75;100.00;96306.22;5028286;28;20359;-49
2023/09/24 05:44:33;;;;;;;;;;;11.00;65.00;;;6.86;100.00;96310.75;5024755;28;20375;-49
2023/09/24 05:46:59;;;;;;;;;;;11.10;65.10;;;6.97;100.00;96320.59;5019005;28;19936;-47
2023/09/24 05:49:25;;;;;;;;;;;11.20;65.20;;;7.07;100.00;96317.41;5032897;28;19913;-47
2023/09/24 05:51:51;;;;;;;;;;;11.40;65.30;;;7.19;100.00;96315.63;5020992;28;19975;-48
2023/09/24 05:54:16;;;;;;;;;;;11.50;65.20;;;7.32;100.00;96319.94;5031250;28;19915;-48
2023/09/24 05:56:43;;;;;;;;;;;11.60;65.20;;;7.43;100.00;96321.81;5026419;28;20299;-48
2023/09/24 05:59:09;;;;;;;;;;;11.80;65.20;;;7.52;100.00;96322.28;5023665;28;20447;-47
2023/09/24 06:01:35;;;;;;;;;;;11.90;65.00;;;7.65;100.00;96322.91;5007182;28;20343;-49
2023/09/24 06:04:00;;;;;;;;;;;12.10;65.00;;;7.79;100.00;96317.38;5029498;28;19915;-50
2023/09/24 06:06:26;;;;;;;;;;;12.30;65.00;;;7.86;100.00;96316.22;5025160;28;19954;-48
2023/09/24 06:08:55;;;;;;;;;;;12.40;64.80;;;7.97;100.00;96319.94;5027011;28;20751;-48
2023/09/24 06:11:21;;;;;;;;;;;12.60;64.70;;;8.07;100.00;96325.47;5024728;28;19963;-50
2023/09/24 06:13:47;;;;;;;;;;;12.80;64.60;;;8.17;100.00;96330.22;5030082;28;19917;-47
2023/09/24 06:16:12;;;;;;;;;;;12.90;64.40;;;8.28;100.00;96332.06;5028974;28;19926;-51
2023/09/24 06:18:38;;;;;;;;;;;13.00;64.30;;;8.37;100.00;96332.53;5028587;28;19958;-48
2023/09/24 06:21:04;;;;;;;;;;;13.10;64.10;;;8.47;100.00;96330.13;5029646;28;20390;-50
2023/09/24 06:23:31;;;;;;;;;;;13.30;64.10;;;8.59;100.00;96322.16;5026556;28;19921;-48
2023/09/24 06:25:58;;;;;;;;;;;13.40;64.00;;;8.69;100.00;96329.53;5025680;28;19963;-49
2023/09/24 06:28:27;;;;;;;;;;;13.50;63.80;;;8.74;100.00;96334.91;5028900;28;19913;-47
2023/09/24 06:31:05;;;;;;;;;;;13.60;63.60;;;8.86;100.00;96333.03;5025301;28;19955;-47
2023/09/24 06:33:31;;;;;;;;;;;13.80;63.60;;;8.96;100.00;96335.94;5005802;28;19987;-48
2023/09/24 06:35:57;;;;;;;;;;;14.00;63.60;;;9.14;100.00;96342.09;5026208;28;19913;-47
2023/09/24 06:38:23;;;;;;;;;;;14.10;63.40;;;9.31;100.00;96332.34;5017968;28;19908;-47
2023/09/24 06:41:03;;;;;;;;;;;14.30;63.40;;;9.47;100.00;96338.75;4997983;28;21687;-48
2023/09/24 06:43:30;;;;;;;;;;;14.60;63.30;;;9.62;100.00;96341.66;5022356;28;20317;-49
2023/09/24 06:45:57;;;;;;;;;;;14.80;63.20;;;9.63;100.00;96335.28;5021797;28;19948;-49
2023/09/24 06:48:25;;;;;;;;;;;15.00;63.00;;;9.52;100.00;96340.66;5027451;28;19919;-48
2023/09/24 06:50:53;;;;;;;;;;;15.10;62.70;;;9.49;100.00;96345.44;5027632;28;20009;-49
2023/09/24 06:53:19;;;;;;;;;;;15.20;62.40;;;9.57;100.00;96344.22;5024603;28;19909;-50
2023/09/24 06:55:46;;;;;;;;;;;15.30;62.20;;;9.77;100.00;96343.75;5023116;28;19909;-50
2023/09/24 06:58:13;;;;;;;;;;;15.50;62.00;;;9.64;100.00;96344.06;5023995;28;20378;-48
2023/09/24 07:00:39;;;;;;;;;;;15.70;61.80;;;9.86;100.00;96350.31;5019161;28;19912;-45
2023/09/24 07:03:05;;;;;;;;;;;15.70;61.70;;;9.98;100.00;96347.56;5022485;28;20359;-52
2023/09/24 07:05:31;;;;;;;;;;;15.90;61.80;;;9.84;100.00;96343.59;5028822;28;19962;-53
2023/09/24 07:07:58;;;;;;;;;;;15.90;61.70;;;9.72;100.00;96346.34;5023484;28;19913;-50
2023/09/24 07:10:24;;;;;;;;;;;15.90;61.50;;;9.86;100.00;96342.31;5010459;28;19916;-52
2023/09/24 07:12:52;;;;;;;;;;;16.00;62.30;;;9.97;100.00;96356.63;5018924;28;19952;-51
2023/09/24 07:15:18;;;;;;;;;;;16.00;61.50;;;10.01;100.00;96352.41;5028626;28;19959;-48
2023/09/24 07:17:44;;;;;;;;;;;16.00;61.60;;;9.90;100.00;96355.94;5028295;28;19960;-53
2023/09/24 07:20:10;;;;;;;;;;;16.00;61.60;;;9.82;100.00;96365.16;5027660;28;19923;-52
2023/09/24 07:22:37;;;;;;;;;;;16.00;61.50;;;9.92;100.00;96362.66;5029862;28;19948;-49
2023/09/24 07:25:04;;;;;;;;;;;16.10;61.50;;;10.07;100.00;96364.75;5039819;23;20322;-50
2023/09/24 07:27:30;;;;;;;;;;;16.10;61.50;;;9.95;100.00;96361.38;4981614;28;20256;-53
2023/09/24 07:29:56;;;;;;;;;;;16.20;61.50;;;10.20;100.00;96366.28;4979158;28;19959;-53
2023/09/24 07:32:21;;;;;;;;;;;16.20;61.50;;;10.40;100.00;96369.31;4985626;28;20337;-54
2023/09/24 07:34:47;;;;;;;;;;;16.30;61.50;;;10.54;100.00;96372.44;4983518;28;20443;-50
2023/09/24 07:37:14;;;;;;;;;;;16.40;61.60;;;10.73;100.00;96377.47;4989806;28;20338;-49
2023/09/24 07:39:40;;;;;;;;;;;16.40;61.50;;;10.91;100.00;96377.19;4992656;28;19917;-49
2023/09/24 07:42:07;;;;;;;;;;;16.80;61.50;;;11.09;100.00;96374.22;4970776;28;19909;-54
2023/09/24 07:44:33;;;;;;;;;;;17.00;61.30;;;11.36;100.00;96376.13;4988651;28;19909;-50
2023/09/24 07:46:59;;;;;;;;;;;17.40;61.10;;;11.11;100.00;96373.97;4990837;28;19918;-52
2023/09/24 07:49:25;;;;;;;;;;;17.70;60.80;;;11.36;100.00;96370.78;4989967;28;19966;-54
2023/09/24 07:51:50;;;;;;;;;;;17.90;60.30;;;11.74;100.00;96369.84;4991102;28;19909;-52
2023/09/24 07:54:17;;;;;;;;;;;18.00;60.10;;;11.88;100.00;96372.16;4990640;28;19910;-52
2023/09/24 07:56:43;;;;;;;;;;;18.30;60.20;;;12.08;100.00;96374.19;4989254;28;19913;-54
2023/09/24 07:59:10;;;;;;;;;;;18.50;59.90;;;12.17;100.00;96370.78;4990540;28;20000;-55
2023/09/24 08:01:36;;;;;;;;;;;18.70;59.80;;;12.52;100.00;96368.63;4989797;28;20379;-55
2023/09/24 08:04:03;;;;;;;;;;;18.90;59.70;;;12.77;99.17;96367.97;4970389;28;19959;-53
2023/09/24 08:06:29;;;;;;;;;;;19.20;59.60;;;12.94;96.86;96377.44;4983901;28;19913;-53
2023/09/24 08:08:56;;;;;;;;;;;19.40;59.50;;;12.74;96.43;96372.78;4989574;28;20000;-56
2023/09/24 08:11:25;;;;;;;;;;;19.60;59.20;;;12.69;98.62;96370.09;4991139;28;19909;-55
2023/09/24 08:13:54;;;;;;;;;;;19.80;58.80;;;12.91;95.07;96374.47;4990577;28;19910;-56
2023/09/24 08:16:20;;;;;;;;;;;20.00;58.70;;;12.72;96.33;96371.41;4994177;28;19909;-51
2023/09/24 08:18:48;;;;;;;;;;;20.20;58.40;;;13.25;94.02;96371.44;4994546;28;19910;-52
2023/09/24 08:21:14;;;;;;;;;;;20.30;58.20;;;13.58;92.54;96371.00;4980216;28;20408;-54
2023/09/24 08:23:40;;;;;;;;;;;20.50;58.00;;;13.89;90.02;96368.41;4982394;28;19996;-54
2023/09/24 08:26:05;;;;;;;;;;;20.70;57.70;;;14.37;87.65;96376.97;4978751;28;20327;-52
2023/09/24 08:28:31;;;;;;;;;;;21.00;57.50;;;14.65;85.69;96377.53;4983671;28;19921;-51
2023/09/24 08:30:57;;;;;;;;;;;21.20;57.20;;;14.76;85.96;96384.44;4983649;28;19932;-51
2023/09/24 08:33:23;;;;;;;;;;;21.50;57.10;;;14.88;84.02;96371.56;4983916;28;19909;-49
2023/09/24 08:35:48;;;;;;;;;;;21.70;56.80;;;14.94;83.32;96377.72;4983968;28;19920;-53
2023/09/24 08:38:14;;;;;;;;;;;22.10;56.60;;;15.21;80.48;96380.06;4985369;28;19952;-52
2023/09/24 08:40:41;;;;;;;;;;;22.30;56.20;;;14.76;79.17;96373.72;4982146;28;20390;-49
2023/09/24 08:43:16;;;;;;;;;;;22.30;55.80;;;14.34;83.42;96372.16;4981857;28;20382;-53
2023/09/24 08:45:42;;;;;;;;;;;22.20;55.60;;;14.48;80.80;96373.22;4980334;28;19961;-51
2023/09/24 08:48:09;;;;;;;;;;;22.30;55.30;;;14.39;82.68;96372.16;4988880;28;19918;-54
2023/09/24 08:50:41;;;;;;;;;;;22.40;55.00;;;14.94;79.09;96377.72;4979535;28;20387;-52
2023/09/24 08:53:12;;;;;;;;;;;22.60;55.40;;;14.97;78.47;96367.22;4988207;28;20299;-51
2023/09/24 08:55:43;;;;;;;;;;;22.60;54.60;;;14.61;81.14;96379.94;4977013;28;19949;-54
2023/09/24 08:58:09;;;;;;;;;;;22.60;54.40;;;14.33;80.22;96370.56;4982666;28;20008;-49
2023/09/24 09:00:36;;;;;;;;;;;22.30;54.40;;;14.59;81.01;96376.72;4973186;28;19975;-52
2023/09/24 09:03:06;;;;;;;;;;;22.10;54.40;;;14.76;80.41;96387.13;4980918;28;19917;-55
2023/09/24 09:05:37;;;;;;;;;;;21.90;54.30;;;14.74;81.64;96379.38;4981216;28;19909;-54
2023/09/24 09:08:05;;;;;;;;;;;21.80;54.50;;;15.13;79.87;96381.41;4981515;28;20399;-51
2023/09/24 09:10:33;;;;;;;;;;;22.00;54.50;;;15.29;76.86;96371.41;4980233;28;19952;-56
2023/09/24 09:13:11;;;;;;;;;;;22.20;54.50;;;15.50;75.66;96370.25;4979212;28;20446;-50
2023/09/24 09:15:43;;;;;;;;;;;22.50;54.20;;;15.68;74.50;96370.72;4978729;28;19960;-56
2023/09/24 09:18:24;;;;;;;;;;;22.60;54.10;;;16.09;73.07;96360.50;4979686;28;20465;-50
2023/09/24 09:20:52;;;;;;;;;;;22.80;53.90;;;16.25;74.79;96363.06;4980601;28;19917;-54
2023/09/24 09:23:45;;;;;;;;;;;23.00;53.60;;;15.73;74.17;96354.56;4984472;28;20334;-51
2023/09/24 09:26:10;;;;;;;;;;;22.90;53.20;;;16.11;73.36;96365.63;4980972;28;19917;-55
2023/09/24 09:28:36;;;;;;;;;;;23.00;53.10;;;16.17;72.33;96364.50;4982511;28;19920;-56
2023/09/24 09:31:11;;;;;;;;;;;23.10;52.90;;;16.67;70.70;96351.66;4987200;28;19917;-50
2023/09/24 09:33:42;;;;;;;;;;;23.30;52.60;;;16.74;69.85;96340.59;4993156;28;20371;-55
2023/09/24 09:36:27;;;;;;;;;;;23.30;52.50;;;16.35;71.97;96353.03;4993053;28;19936;-56
2023/09/24 09:38:55;;;;;;;;;;;23.50;52.10;;;16.62;71.39;96354.41;4986619;28;19916;-54
2023/09/24 09:41:26;;;;;;;;;;;23.70;51.70;;;16.20;73.58;96353.16;4993250;28;19920;-54
2023/09/24 09:43:53;;;;;;;;;;;23.90;51.40;;;16.91;69.53;96350.91;4988555;28;19916;-54
2023/09/24 09:46:24;;;;;;;;;;;24.20;51.30;;;17.41;67.68;96349.50;4988263;28;19921;-54
2023/09/24 09:49:20;;;;;;;;;;;24.50;50.90;;;17.54;65.85;96348.78;4993074;28;19914;-55
2023/09/24 09:51:49;;;;;;;;;;;24.80;50.40;;;17.95;64.33;96352.81;4975529;28;19909;-56
2023/09/24 09:54:17;;;;;;;;;;;25.10;50.00;;;18.15;64.84;96351.72;4992668;28;20408;-52
2023/09/24 09:56:43;;;;;;;;;;;25.40;49.60;;;18.25;64.26;96359.63;4989005;28;20428;-51
2023/09/24 09:59:10;;;;;;;;;;;25.60;49.20;;;18.36;62.09;96357.56;4982161;28;19957;-51
2023/09/24 10:01:36;;;;;;;;;;;25.90;49.00;;;18.49;62.15;96352.22;4990942;28;19996;-55
2023/09/24 10:04:05;;;;;;;;;;;26.10;48.60;;;18.79;61.71;96350.09;4986724;28;19910;-51
2023/09/24 10:06:35;;;;;;;;;;;26.40;48.40;;;19.07;60.86;96345.50;4992248;28;19914;-49
2023/09/24 10:09:01;;;;;;;;;;;26.60;47.90;;;19.25;59.15;96338.41;4983188;28;19914;-51
2023/09/24 10:11:33;;;;;;;;;;;26.90;47.60;;;19.32;59.59;96346.91;4992710;28;20295;-52
2023/09/24 10:14:01;;;;;;;;;;;27.10;47.20;;;19.50;55.56;96347.09;4989458;28;19972;-54
2023/09/24 10:16:35;;;;;;;;;;;27.30;47.20;;;19.56;56.11;96343.97;4991812;28;19916;-54
2023/09/24 10:19:12;;;;;;;;;;;27.40;46.40;;;19.26;56.97;96350.00;4992195;28;19916;-51
2023/09/24 10:21:43;;;;;;;;;;;27.60;46.00;;;19.16;57.14;96346.41;4988811;28;20276;-53
2023/09/24 10:24:12;;;;;;;;;;;27.30;45.90;;;19.28;57.51;96350.53;4984477;28;19914;-50
2023/09/24 10:27:01;;;;;;;;;;;27.20;45.90;;;18.17;57.16;96342.22;4991042;28;19924;-51
2023/09/24 10:29:51;;;;;;;;;;;27.10;45.70;;;18.47;58.16;96340.13;4989884;28;19925;-50
2023/09/24 10:32:21;;;;;;;;;;;27.10;45.60;;;18.83;57.83;96342.19;4991132;28;19916;-50
2023/09/24 10:34:56;;;;;;;;;;;27.10;45.20;;;19.08;58.28;96344.41;4985859;28;20363;-49
2023/09/24 10:37:30;;;;;;;;;;;27.30;45.20;;;19.05;56.77;96342.31;4991227;28;19985;-49
2023/09/24 10:39:59;;;;;;;;;;;27.30;45.00;;;19.03;56.86;96339.13;4982885;28;19963;-52
2023/09/24 10:42:44;;;;;;;;;;;27.10;44.80;;;18.89;57.79;96341.78;4992235;28;20396;-53
2023/09/24 10:45:10;;;;;;;;;;;26.70;44.70;;;18.62;58.66;96330.97;4990700;28;19913;-53
2023/09/24 10:47:46;;;;;;;;;;;26.20;44.90;;;17.65;60.43;96327.09;4992082;28;19995;-51
2023/09/24 10:50:14;;;;;;;;;;;25.70;44.90;;;17.55;61.14;96333.44;4980118;28;19913;-52
2023/09/24 10:52:53;;;;;;;;;;;25.50;45.10;;;17.48;62.69;96323.00;4988760;28;19932;-52
2023/09/24 10:55:28;;;;;;;;;;;25.20;45.30;;;17.87;61.37;96330.03;4989005;28;19913;-52
2023/09/24 10:58:14;;;;;;;;;;;25.20;45.60;;;17.99;62.10;96327.69;4987985;28;19960;-54
2023/09/24 11:00:44;;;;;;;;;;;25.00;45.50;;;18.03;59.92;96322.50;4991680;28;20354;-53
2023/09/24 11:03:13;;;;;;;;;;;25.50;45.50;;;18.40;56.17;96328.94;4983491;28;19910;-56
2023/09/24 11:05:50;;;;;;;;;;;25.80;45.30;;;18.71;58.03;96318.38;4990902;28;20345;-53
2023/09/24 11:08:18;;;;;;;;;;;26.20;45.20;;;18.63;56.44;96319.06;4988840;28;19914;-53
2023/09/24 11:10:51;;;;;;;;;;;26.60;44.80;;;18.63;55.27;96319.06;4991669;28;19909;-54
2023/09/24 11:13:17;;;;;;;;;;;27.00;44.50;;;18.50;56.12;96310.66;4990769;28;20028;-56
2023/09/24 11:15:44;;;;;;;;;;;27.30;43.90;;;18.58;53.55;96309.16;4990788;28;19949;-51
2023/09/24 11:18:13;;;;;;;;;;;27.50;43.60;;;18.92;52.92;96303.41;4991364;28;20401;-54
2023/09/24 11:20:51;;;;;;;;;;;27.60;43.10;;;19.32;52.69;96306.38;4990551;28;19913;-57
2023/09/24 11:23:18;;;;;;;;;;;27.90;42.90;;;19.04;54.06;96305.63;4991159;28;19909;-52
2023/09/24 11:25:50;;;;;;;;;;;28.10;42.60;;;19.42;53.92;96305.38;4988068;28;19956;-56